Time;durP1;ratioP1;P1;durP2;ratioP2;P2;SDS_P1;SDS_P2;PMS_P1;PMS_P2;Temp;Humidity;BMP_temperature;BMP_pressure;BME280_temperature;BME280_humidity;BME280_pressure;Samples;Min_cycle;Max_cycle;Signal;HPM_P1;HPM_P2
2023/08/30 00:01:13;;;;;;;;;;;;;;;;;;4867419;29;19951;-80
2023/08/30 00:03:38;;;;;;;;;;;;;;;;;;4849014;29;20289;-79
2023/08/30 00:06:04;;;;;;;;;;;;;;;;;;4843212;29;19924;-80
2023/08/30 00:08:30;;;;;;;;;;;;;;;;;;4847564;29;19931;-80
2023/08/30 00:10:58;;;;;;;;;;;;;;;;;;4845837;29;19931;-80
2023/08/30 00:13:23;;;;;;;;;;;;;;;;;;4866929;29;20296;-81
2023/08/30 00:15:48;;;;;;;;;;;;;;;;;;4848864;29;19919;-80
2023/08/30 00:18:14;;;;;;;;;;;;;;;;;;4848619;29;19923;-80
2023/08/30 00:20:39;;;;;;;;;;;;;;;;;;4868226;29;19923;-81
2023/08/30 00:23:04;;;;;;;;;;;;;;;;;;4867519;29;19930;-79
2023/08/30 00:25:30;;;;;;;;;;;;;;;;;;4866780;29;19916;-79
2023/08/30 00:27:55;;;;;;;;;;;;;;;;;;4846825;29;19920;-79
2023/08/30 00:30:20;;;;;;;;;;;;;;;;;;4863541;29;19919;-79
2023/08/30 00:32:45;;;;;;;;;;;;;;;;;;4838702;29;19919;-79
2023/08/30 00:35:11;;;;;;;;;;;;;;;;;;4867878;29;19971;-79
2023/08/30 00:37:39;;;;;;;;;;;;;;;;;;4867857;29;20278;-79
2023/08/30 00:40:05;;;;;;;;;;;;;;;;;;4850430;29;20035;-79
2023/08/30 00:42:31;;;;;;;;;;;;;;;;;;4865205;29;19970;-79
2023/08/30 00:44:56;;;;;;;;;;;;;;;;;;4868496;29;20377;-79
2023/08/30 00:47:21;;;;;;;;;;;;;;;;;;4855314;29;20384;-80
2023/08/30 00:49:46;;;;;;;;;;;;;;;;;;4864314;29;19980;-78
2023/08/30 00:52:12;;;;;;;;;;;;;;;;;;4867965;29;19927;-79
2023/08/30 00:54:37;;;;;;;;;;;;;;;;;;4850408;29;20365;-79
2023/08/30 00:57:03;;;;;;;;;;;;;;;;;;4846734;29;19920;-80
2023/08/30 00:59:32;;;;;;;;;;;;;;;;;;4849496;29;19931;-79
2023/08/30 01:01:57;;;;;;;;;;;;;;;;;;4844087;29;19927;-79
2023/08/30 01:04:23;;;;;;;;;;;;;;;;;;4867190;29;19926;-80
2023/08/30 01:06:48;;;;;;;;;;;;;;;;;;4865363;29;19919;-80
2023/08/30 01:09:14;;;;;;;;;;;;;;;;;;4867591;29;19924;-79
2023/08/30 01:11:43;;;;;;;;;;;;;;;;;;4867313;29;19968;-79
2023/08/30 01:14:10;;;;;;;;;;;;;;;;;;4867805;29;19920;-80
2023/08/30 01:16:36;;;;;;;;;;;;;;;;;;4859180;29;20388;-80
2023/08/30 01:19:18;;;;;;;;;;;;;;;;;;4861328;29;19927;-80
2023/08/30 01:22:07;;;;;;;;;;;;;;;;;;4857896;29;20247;-80
2023/08/30 01:24:40;;;;;;;;;;;;;;;;;;4855895;29;19922;-80
2023/08/30 01:27:09;;;;;;;;;;;;;;;;;;4852046;29;19968;-80
2023/08/30 01:29:38;;;;;;;;;;;;;;;;;;4855427;29;20369;-79
2023/08/30 01:32:03;;;;;;;;;;;;;;;;;;4869677;29;19990;-80
2023/08/30 01:34:28;;;;;;;;;;;;;;;;;;4870480;29;20514;-79
2023/08/30 01:36:54;;;;;;;;;;;;;;;;;;4851921;29;20010;-79
2023/08/30 01:39:19;;;;;;;;;;;;;;;;;;4853491;29;20289;-80
2023/08/30 01:41:44;;;;;;;;;;;;;;;;;;4850551;29;19927;-79
2023/08/30 01:44:10;;;;;;;;;;;;;;;;;;4867558;29;19923;-80
2023/08/30 01:46:35;;;;;;;;;;;;;;;;;;4865588;29;20349;-80
2023/08/30 01:49:03;;;;;;;;;;;;;;;;;;4851586;29;19939;-80
2023/08/30 01:51:28;;;;;;;;;;;;;;;;;;4853006;29;20408;-79
2023/08/30 01:53:54;;;;;;;;;;;;;;;;;;4869530;29;19920;-79
2023/08/30 01:56:19;;;;;;;;;;;;;;;;;;4849748;29;20284;-79
2023/08/30 01:58:44;;;;;;;;;;;;;;;;;;4868408;29;19920;-79
2023/08/30 02:01:10;;;;;;;;;;;;;;;;;;4849687;29;19920;-80
2023/08/30 02:03:35;;;;;;;;;;;;;;;;;;4865543;29;19928;-79
2023/08/30 02:06:10;;;;;;;;;;;;;;;;;;4849242;29;19920;-79
2023/08/30 02:08:38;;;;;;;;;;;;;;;;;;4870049;29;19934;-79
2023/08/30 02:11:05;;;;;;;;;;;;;;;;;;4850680;29;20368;-79
2023/08/30 02:13:30;;;;;;;;;;;;;;;;;;4872157;29;19927;-79
2023/08/30 02:15:56;;;;;;;;;;;;;;;;;;4849993;29;20420;-79
2023/08/30 02:18:22;;;;;;;;;;;;;;;;;;4869919;29;19941;-79
2023/08/30 02:20:47;;;;;;;;;;;;;;;;;;4861808;29;19920;-80
2023/08/30 02:23:12;;;;;;;;;;;;;;;;;;4866899;29;19927;-79
2023/08/30 02:25:38;;;;;;;;;;;;;;;;;;4869481;29;20003;-79
2023/08/30 02:28:03;;;;;;;;;;;;;;;;;;4869825;29;19955;-80
2023/08/30 02:30:29;;;;;;;;;;;;;;;;;;4866602;29;20031;-79
2023/08/30 02:32:54;;;;;;;;;;;;;;;;;;4852599;29;19938;-79
2023/08/30 02:35:22;;;;;;;;;;;;;;;;;;4866080;29;20331;-79
2023/08/30 02:37:47;;;;;;;;;;;;;;;;;;4850517;29;20413;-79
2023/08/30 02:40:12;;;;;;;;;;;;;;;;;;4863557;29;19983;-79
2023/08/30 02:42:38;;;;;;;;;;;;;;;;;;4870523;29;19927;-79
2023/08/30 02:45:03;;;;;;;;;;;;;;;;;;4866742;29;20026;-80
2023/08/30 02:47:31;;;;;;;;;;;;;;;;;;4863861;29;19916;-79
2023/08/30 02:49:56;;;;;;;;;;;;;;;;;;4850314;29;19924;-79
2023/08/30 02:52:21;;;;;;;;;;;;;;;;;;4869346;29;19923;-79
2023/08/30 02:54:46;;;;;;;;;;;;;;;;;;4866844;29;19920;-79
2023/08/30 02:57:12;;;;;;;;;;;;;;;;;;4849167;29;19926;-79
2023/08/30 02:59:37;;;;;;;;;;;;;;;;;;4866176;29;19924;-79
2023/08/30 03:02:02;;;;;;;;;;;;;;;;;;4848112;29;19928;-79
2023/08/30 03:04:30;;;;;;;;;;;;;;;;;;4863646;29;20445;-80
2023/08/30 03:06:55;;;;;;;;;;;;;;;;;;4850873;29;20377;-80
2023/08/30 03:09:21;;;;;;;;;;;;;;;;;;4869561;29;19931;-79
2023/08/30 03:11:46;;;;;;;;;;;;;;;;;;4869153;29;19919;-79
2023/08/30 03:14:11;;;;;;;;;;;;;;;;;;4871068;29;20014;-79
2023/08/30 03:16:36;;;;;;;;;;;;;;;;;;4848254;29;20365;-79
2023/08/30 03:19:02;;;;;;;;;;;;;;;;;;4867225;29;20325;-79
2023/08/30 03:21:29;;;;;;;;;;;;;;;;;;4851327;29;20518;-79
2023/08/30 03:23:54;;;;;;;;;;;;;;;;;;4850949;29;20466;-79
2023/08/30 03:26:20;;;;;;;;;;;;;;;;;;4866762;29;19920;-79
2023/08/30 03:28:45;;;;;;;;;;;;;;;;;;4838350;29;19930;-78
2023/08/30 03:31:14;;;;;;;;;;;;;;;;;;4860822;29;19971;-79
2023/08/30 03:33:41;;;;;;;;;;;;;;;;;;4847197;29;19951;-79
2023/08/30 03:36:06;;;;;;;;;;;;;;;;;;4847079;29;19920;-79
2023/08/30 03:38:33;;;;;;;;;;;;;;;;;;4849507;29;19958;-79
2023/08/30 03:40:59;;;;;;;;;;;;;;;;;;4859560;29;20455;-80
2023/08/30 03:43:26;;;;;;;;;;;;;;;;;;4865830;29;19939;-80
2023/08/30 03:45:52;;;;;;;;;;;;;;;;;;4858611;29;20015;-80
2023/08/30 03:48:17;;;;;;;;;;;;;;;;;;4855037;29;20026;-80
2023/08/30 03:50:44;;;;;;;;;;;;;;;;;;4856891;29;20407;-81
2023/08/30 03:53:10;;;;;;;;;;;;;;;;;;4855117;29;19927;-80
2023/08/30 03:55:36;;;;;;;;;;;;;;;;;;4864856;29;20750;-80
2023/08/30 03:58:01;;;;;;;;;;;;;;;;;;4867439;29;19919;-80
2023/08/30 04:00:27;;;;;;;;;;;;;;;;;;4866923;29;19920;-80
2023/08/30 04:02:52;;;;;;;;;;;;;;;;;;4847099;29;19928;-81
2023/08/30 04:05:17;;;;;;;;;;;;;;;;;;4817499;29;19981;-80
2023/08/30 04:07:43;;;;;;;;;;;;;;;;;;4860925;29;19923;-81
2023/08/30 04:10:08;;;;;;;;;;;;;;;;;;4860347;29;19931;-80
2023/08/30 04:12:34;;;;;;;;;;;;;;;;;;4861553;29;19920;-79
2023/08/30 04:15:00;;;;;;;;;;;;;;;;;;4847813;29;19923;-79
2023/08/30 04:17:25;;;;;;;;;;;;;;;;;;4843000;29;19920;-80
2023/08/30 04:19:53;;;;;;;;;;;;;;;;;;4850994;29;19923;-80
2023/08/30 04:22:18;;;;;;;;;;;;;;;;;;4867837;29;19920;-80
2023/08/30 04:24:44;;;;;;;;;;;;;;;;;;4848334;29;19920;-81
2023/08/30 04:27:09;;;;;;;;;;;;;;;;;;4848800;29;19927;-81
2023/08/30 04:29:34;;;;;;;;;;;;;;;;;;4867447;29;19934;-80
2023/08/30 04:32:02;;;;;;;;;;;;;;;;;;4866642;29;20911;-80
2023/08/30 04:34:27;;;;;;;;;;;;;;;;;;4852487;29;20517;-80
2023/08/30 04:36:53;;;;;;;;;;;;;;;;;;4849674;29;20018;-80
2023/08/30 04:39:18;;;;;;;;;;;;;;;;;;4849660;29;19919;-80
2023/08/30 04:41:43;;;;;;;;;;;;;;;;;;4868316;29;19948;-80
2023/08/30 04:44:09;;;;;;;;;;;;;;;;;;4867457;29;20423;-81
2023/08/30 04:46:34;;;;;;;;;;;;;;;;;;4850293;29;19920;-80
2023/08/30 04:49:02;;;;;;;;;;;;;;;;;;4841250;29;19931;-80
2023/08/30 04:51:27;;;;;;;;;;;;;;;;;;4866629;29;19919;-79
2023/08/30 04:53:53;;;;;;;;;;;;;;;;;;4841049;29;20424;-79
2023/08/30 04:56:18;;;;;;;;;;;;;;;;;;4861781;29;20730;-80
2023/08/30 04:58:43;;;;;;;;;;;;;;;;;;4866263;29;19927;-80
2023/08/30 05:01:09;;;;;;;;;;;;;;;;;;4849060;29;20377;-80
2023/08/30 05:03:34;;;;;;;;;;;;;;;;;;4865013;29;19976;-80
2023/08/30 05:05:59;;;;;;;;;;;;;;;;;;4846683;29;20405;-80
2023/08/30 05:08:25;;;;;;;;;;;;;;;;;;4846549;29;19930;-80
2023/08/30 05:10:50;;;;;;;;;;;;;;;;;;4863736;29;19984;-80
2023/08/30 05:13:16;;;;;;;;;;;;;;;;;;4864428;29;20320;-82
2023/08/30 05:15:41;;;;;;;;;;;;;;;;;;4866756;29;20303;-82
2023/08/30 05:18:08;;;;;;;;;;;;;;;;;;4856195;29;20821;-80
2023/08/30 05:20:34;;;;;;;;;;;;;;;;;;4860558;29;20663;-81
2023/08/30 05:22:59;;;;;;;;;;;;;;;;;;4861549;29;19927;-80
2023/08/30 05:25:24;;;;;;;;;;;;;;;;;;4846888;29;19920;-81
2023/08/30 05:27:49;;;;;;;;;;;;;;;;;;4856040;29;19954;-80
2023/08/30 05:30:16;;;;;;;;;;;;;;;;;;4847926;29;20428;-80
2023/08/30 05:32:41;;;;;;;;;;;;;;;;;;4838694;29;20368;-80
2023/08/30 05:35:06;;;;;;;;;;;;;;;;;;4846555;29;19915;-80
2023/08/30 05:37:32;;;;;;;;;;;;;;;;;;4844566;29;20578;-80
2023/08/30 05:39:57;;;;;;;;;;;;;;;;;;4863390;29;19924;-80
2023/08/30 05:42:22;;;;;;;;;;;;;;;;;;4850294;29;19924;-80
2023/08/30 05:44:48;;;;;;;;;;;;;;;;;;4867884;29;19919;-80
2023/08/30 05:47:15;;;;;;;;;;;;;;;;;;4862837;29;19920;-80
2023/08/30 05:49:40;;;;;;;;;;;;;;;;;;4857340;29;20368;-79
2023/08/30 05:52:06;;;;;;;;;;;;;;;;;;4845678;29;19922;-81
2023/08/30 05:54:33;;;;;;;;;;;;;;;;;;4848374;29;20362;-80
2023/08/30 05:56:58;;;;;;;;;;;;;;;;;;4848952;29;19923;-80
2023/08/30 05:59:23;;;;;;;;;;;;;;;;;;4849569;29;19916;-80
2023/08/30 06:01:48;;;;;;;;;;;;;;;;;;4819079;29;20344;-81
2023/08/30 06:04:14;;;;;;;;;;;;;;;;;;4847565;29;19920;-80
2023/08/30 06:06:39;;;;;;;;;;;;;;;;;;4845837;29;19930;-80
2023/08/30 06:09:05;;;;;;;;;;;;;;;;;;4848718;29;19931;-80
2023/08/30 06:11:30;;;;;;;;;;;;;;;;;;4851140;29;19975;-80
2023/08/30 06:13:55;;;;;;;;;;;;;;;;;;4867850;29;20388;-81
2023/08/30 06:16:20;;;;;;;;;;;;;;;;;;4865528;29;20410;-81
2023/08/30 06:18:46;;;;;;;;;;;;;;;;;;4870312;29;19920;-80
2023/08/30 06:21:14;;;;;;;;;;;;;;;;;;4850075;29;19967;-80
2023/08/30 06:23:42;;;;;;;;;;;;;;;;;;4848227;29;20397;-80
2023/08/30 06:26:07;;;;;;;;;;;;;;;;;;4869731;29;19919;-80
2023/08/30 06:28:32;;;;;;;;;;;;;;;;;;4842848;29;19996;-80
2023/08/30 06:30:58;;;;;;;;;;;;;;;;;;4848465;29;20440;-80
2023/08/30 06:33:23;;;;;;;;;;;;;;;;;;4852112;29;19919;-80
2023/08/30 06:35:53;;;;;;;;;;;;;;;;;;4868243;29;19920;-80
2023/08/30 06:38:18;;;;;;;;;;;;;;;;;;4870102;29;19923;-79
2023/08/30 06:40:44;;;;;;;;;;;;;;;;;;4848685;29;20288;-80
2023/08/30 06:43:10;;;;;;;;;;;;;;;;;;4867468;29;19926;-80
2023/08/30 06:45:35;;;;;;;;;;;;;;;;;;4842420;29;19924;-80
2023/08/30 06:48:03;;;;;;;;;;;;;;;;;;4848590;29;20002;-80
2023/08/30 06:50:28;;;;;;;;;;;;;;;;;;4869408;29;20399;-80
2023/08/30 06:52:53;;;;;;;;;;;;;;;;;;4850304;29;20005;-80
2023/08/30 06:55:21;;;;;;;;;;;;;;;;;;4842434;29;19920;-80
2023/08/30 06:57:47;;;;;;;;;;;;;;;;;;4851794;29;20380;-80
2023/08/30 07:00:13;;;;;;;;;;;;;;;;;;4842557;29;19959;-80
2023/08/30 07:02:38;;;;;;;;;;;;;;;;;;4854872;29;19932;-80
2023/08/30 07:05:04;;;;;;;;;;;;;;;;;;4850819;29;20334;-79
2023/08/30 07:07:30;;;;;;;;;;;;;;;;;;4848012;29;20407;-80
2023/08/30 07:09:55;;;;;;;;;;;;;;;;;;4852158;29;19998;-79
2023/08/30 07:12:20;;;;;;;;;;;;;;;;;;4833523;29;19927;-80
2023/08/30 07:14:46;;;;;;;;;;;;;;;;;;4834563;29;20034;-80
2023/08/30 07:17:11;;;;;;;;;;;;;;;;;;4849961;29;19920;-79
2023/08/30 07:19:36;;;;;;;;;;;;;;;;;;4852592;29;20435;-80
2023/08/30 07:22:01;;;;;;;;;;;;;;;;;;4847009;29;19920;-80
2023/08/30 07:24:27;;;;;;;;;;;;;;;;;;4849200;29;19924;-80
2023/08/30 07:26:52;;;;;;;;;;;;;;;;;;4867630;29;19954;-80
2023/08/30 07:29:17;;;;;;;;;;;;;;;;;;4860816;29;19946;-80
2023/08/30 07:31:43;;;;;;;;;;;;;;;;;;4851555;29;19920;-80
2023/08/30 07:34:08;;;;;;;;;;;;;;;;;;4848694;29;19919;-80
2023/08/30 07:36:33;;;;;;;;;;;;;;;;;;4848025;29;20296;-80
2023/08/30 07:38:58;;;;;;;;;;;;;;;;;;4851124;29;19920;-80
2023/08/30 07:41:24;;;;;;;;;;;;;;;;;;4848882;29;20286;-80
2023/08/30 07:43:49;;;;;;;;;;;;;;;;;;4867482;29;19916;-80
2023/08/30 07:46:14;;;;;;;;;;;;;;;;;;4863745;29;19920;-80
2023/08/30 07:48:39;;;;;;;;;;;;;;;;;;4868151;29;19927;-79
2023/08/30 07:51:05;;;;;;;;;;;;;;;;;;4842130;29;19924;-79
2023/08/30 07:53:30;;;;;;;;;;;;;;;;;;4849857;29;19920;-79
2023/08/30 07:55:55;;;;;;;;;;;;;;;;;;4863535;29;19920;-80
2023/08/30 07:58:20;;;;;;;;;;;;;;;;;;4861940;29;19943;-79
2023/08/30 08:00:46;;;;;;;;;;;;;;;;;;4849500;29;20570;-80
2023/08/30 08:03:11;;;;;;;;;;;;;;;;;;4850390;29;19950;-79
2023/08/30 08:05:37;;;;;;;;;;;;;;;;;;4850062;29;20403;-80
2023/08/30 08:08:02;;;;;;;;;;;;;;;;;;4867995;29;19913;-80
2023/08/30 08:10:28;;;;;;;;;;;;;;;;;;4852079;29;20498;-80
2023/08/30 08:12:53;;;;;;;;;;;;;;;;;;4868920;29;19999;-80
2023/08/30 08:15:18;;;;;;;;;;;;;;;;;;4851557;29;20351;-79
2023/08/30 08:17:44;;;;;;;;;;;;;;;;;;4851163;29;19927;-80
2023/08/30 08:20:13;;;;;;;;;;;;;;;;;;4849944;29;19920;-80
2023/08/30 08:22:39;;;;;;;;;;;;;;;;;;4838811;29;19915;-80
2023/08/30 08:25:04;;;;;;;;;;;;;;;;;;4867458;29;19927;-80
2023/08/30 08:27:44;;;;;;;;;;;;;;;;;;4865434;29;19927;-80
2023/08/30 08:30:09;;;;;;;;;;;;;;;;;;4869099;29;20435;-80
2023/08/30 08:32:35;;;;;;;;;;;;;;;;;;4850148;29;19920;-80
2023/08/30 08:35:00;;;;;;;;;;;;;;;;;;4861748;29;19942;-80
2023/08/30 08:37:26;;;;;;;;;;;;;;;;;;4849018;29;20337;-79
2023/08/30 08:39:51;;;;;;;;;;;;;;;;;;4863110;29;19971;-80
2023/08/30 08:42:17;;;;;;;;;;;;;;;;;;4849154;29;19927;-80
2023/08/30 08:44:42;;;;;;;;;;;;;;;;;;4868950;29;20330;-80
2023/08/30 08:47:08;;;;;;;;;;;;;;;;;;4860672;29;19962;-80
2023/08/30 08:49:33;;;;;;;;;;;;;;;;;;4867747;29;19931;-79
2023/08/30 08:51:58;;;;;;;;;;;;;;;;;;4848506;29;19994;-80
2023/08/30 08:54:23;;;;;;;;;;;;;;;;;;4868905;29;19926;-80
2023/08/30 08:56:49;;;;;;;;;;;;;;;;;;4865835;29;19937;-80
2023/08/30 08:59:14;;;;;;;;;;;;;;;;;;4867726;29;19919;-80
2023/08/30 09:01:39;;;;;;;;;;;;;;;;;;4859372;29;19979;-80
2023/08/30 09:04:06;;;;;;;;;;;;;;;;;;4848894;29;19982;-80
2023/08/30 09:06:31;;;;;;;;;;;;;;;;;;4848298;29;20369;-79
2023/08/30 09:08:56;;;;;;;;;;;;;;;;;;4864996;29;19972;-80
2023/08/30 09:11:21;;;;;;;;;;;;;;;;;;4850014;29;20317;-80
2023/08/30 09:13:47;;;;;;;;;;;;;;;;;;4864941;29;20280;-80
2023/08/30 09:16:13;;;;;;;;;;;;;;;;;;4845400;29;19939;-80
2023/08/30 09:18:38;;;;;;;;;;;;;;;;;;4846094;29;20341;-80
2023/08/30 09:21:07;;;;;;;;;;;;;;;;;;4848056;29;19919;-79
2023/08/30 09:23:33;;;;;;;;;;;;;;;;;;4841016;29;19919;-80
2023/08/30 09:25:59;;;;;;;;;;;;;;;;;;4850705;29;19938;-80
2023/08/30 09:28:24;;;;;;;;;;;;;;;;;;4867948;29;19916;-80
2023/08/30 09:30:50;;;;;;;;;;;;;;;;;;4861063;29;19920;-80
2023/08/30 09:33:15;;;;;;;;;;;;;;;;;;4845821;29;20006;-80
2023/08/30 09:35:44;;;;;;;;;;;;;;;;;;4848837;29;20009;-80
2023/08/30 09:38:18;;;;;;;;;;;;;;;;;;4858791;29;19916;-80
2023/08/30 09:40:46;;;;;;;;;;;;;;;;;;4862332;29;19971;-80
2023/08/30 09:43:12;;;;;;;;;;;;;;;;;;4845639;29;19955;-80
2023/08/30 09:45:37;;;;;;;;;;;;;;;;;;4857425;29;19951;-81
2023/08/30 09:48:03;;;;;;;;;;;;;;;;;;4851146;29;19920;-81
2023/08/30 09:50:28;;;;;;;;;;;;;;;;;;4850622;29;19966;-80
2023/08/30 09:52:53;;;;;;;;;;;;;;;;;;4869492;29;20372;-81
2023/08/30 09:55:19;;;;;;;;;;;;;;;;;;4840095;29;20571;-80
2023/08/30 09:57:44;;;;;;;;;;;;;;;;;;4849718;29;19923;-79
2023/08/30 10:00:12;;;;;;;;;;;;;;;;;;4850590;29;20358;-78
2023/08/30 10:02:37;;;;;;;;;;;;;;;;;;4848534;29;20015;-79
2023/08/30 10:05:03;;;;;;;;;;;;;;;;;;4868137;29;20075;-78
2023/08/30 10:07:28;;;;;;;;;;;;;;;;;;4835696;29;19923;-78
2023/08/30 10:09:58;;;;;;;;;;;;;;;;;;4866706;29;19927;-78
2023/08/30 10:12:24;;;;;;;;;;;;;;;;;;4853527;29;20014;-79
2023/08/30 10:14:49;;;;;;;;;;;;;;;;;;4865439;29;20038;-79
2023/08/30 10:17:14;;;;;;;;;;;;;;;;;;4842692;29;19920;-79
2023/08/30 10:19:39;;;;;;;;;;;;;;;;;;4867279;29;20011;-78
2023/08/30 10:22:08;;;;;;;;;;;;;;;;;;4849203;29;20592;-78
2023/08/30 10:24:42;;;;;;;;;;;;;;;;;;4866817;29;20373;-78
2023/08/30 10:27:07;;;;;;;;;;;;;;;;;;4867097;29;21017;-78
2023/08/30 10:29:32;;;;;;;;;;;;;;;;;;4849956;29;19920;-78
2023/08/30 10:32:01;;;;;;;;;;;;;;;;;;4866905;29;19920;-77
2023/08/30 10:34:31;;;;;;;;;;;;;;;;;;4870681;29;20365;-78
2023/08/30 10:37:00;;;;;;;;;;;;;;;;;;4843581;29;19975;-78
2023/08/30 10:39:35;;;;;;;;;;;;;;;;;;4860034;29;19944;-78
2023/08/30 10:42:06;;;;;;;;;;;;;;;;;;4866770;29;19926;-78
2023/08/30 10:44:31;;;;;;;;;;;;;;;;;;4852789;29;19923;-79
2023/08/30 10:46:57;;;;;;;;;;;;;;;;;;4848075;29;19963;-78
2023/08/30 10:49:23;;;;;;;;;;;;;;;;;;4849988;29;20015;-78
2023/08/30 10:51:55;;;;;;;;;;;;;;;;;;4851305;29;19926;-78
2023/08/30 10:54:21;;;;;;;;;;;;;;;;;;4871290;29;20039;-78
2023/08/30 10:56:56;;;;;;;;;;;;;;;;;;4851089;29;19994;-79
2023/08/30 10:59:22;;;;;;;;;;;;;;;;;;4864503;29;20368;-78
2023/08/30 11:01:47;;;;;;;;;;;;;;;;;;4848635;29;19936;-77
2023/08/30 11:04:14;;;;;;;;;;;;;;;;;;4866794;29;19927;-77
2023/08/30 11:06:39;;;;;;;;;;;;;;;;;;4870603;29;20003;-77
2023/08/30 11:09:04;;;;;;;;;;;;;;;;;;4869119;29;20432;-77
2023/08/30 11:11:30;;;;;;;;;;;;;;;;;;4851477;29;19920;-77
2023/08/30 11:14:03;;;;;;;;;;;;;;;;;;4866042;29;20234;-77
2023/08/30 11:16:28;;;;;;;;;;;;;;;;;;4879132;29;19999;-78
2023/08/30 11:18:53;;;;;;;;;;;;;;;;;;4848050;29;20002;-77
2023/08/30 11:21:19;;;;;;;;;;;;;;;;;;4853313;29;20010;-77
2023/08/30 11:23:44;;;;;;;;;;;;;;;;;;4865243;29;20014;-78
2023/08/30 11:26:10;;;;;;;;;;;;;;;;;;4847313;29;19920;-78
2023/08/30 11:28:36;;;;;;;;;;;;;;;;;;4863029;29;20384;-78
2023/08/30 11:31:01;;;;;;;;;;;;;;;;;;4849747;29;20390;-79
2023/08/30 11:33:26;;;;;;;;;;;;;;;;;;4866520;29;19947;-78
2023/08/30 11:35:51;;;;;;;;;;;;;;;;;;4867331;29;19920;-79
2023/08/30 11:38:17;;;;;;;;;;;;;;;;;;4869910;29;19920;-78
2023/08/30 11:40:42;;;;;;;;;;;;;;;;;;4834821;29;19916;-78
2023/08/30 11:43:08;;;;;;;;;;;;;;;;;;4840632;29;19922;-78
2023/08/30 11:45:34;;;;;;;;;;;;;;;;;;4851589;29;20407;-78
2023/08/30 11:47:59;;;;;;;;;;;;;;;;;;4867048;29;19912;-78
2023/08/30 11:50:25;;;;;;;;;;;;;;;;;;4850381;29;20423;-78
2023/08/30 11:52:50;;;;;;;;;;;;;;;;;;4870191;29;19979;-78
2023/08/30 11:55:15;;;;;;;;;;;;;;;;;;4866014;29;19920;-79
2023/08/30 11:57:43;;;;;;;;;;;;;;;;;;4846929;29;20376;-78
2023/08/30 12:00:11;;;;;;;;;;;;;;;;;;4848449;29;19920;-78
2023/08/30 12:02:37;;;;;;;;;;;;;;;;;;4851677;29;19932;-78
2023/08/30 12:05:03;;;;;;;;;;;;;;;;;;4848202;29;19916;-79
2023/08/30 12:07:30;;;;;;;;;;;;;;;;;;4846741;29;19919;-79
2023/08/30 12:10:24;;;;;;;;;;;;;;;;;;4847999;29;19948;-78
2023/08/30 12:12:49;;;;;;;;;;;;;;;;;;4856892;29;20019;-78
2023/08/30 12:15:15;;;;;;;;;;;;;;;;;;4866752;29;20015;-78
2023/08/30 12:17:41;;;;;;;;;;;;;;;;;;4851001;29;20296;-78
2023/08/30 12:20:06;;;;;;;;;;;;;;;;;;4851148;29;19923;-78
2023/08/30 12:22:51;;;;;;;;;;;;;;;;;;4852029;29;20014;-78
2023/08/30 12:25:19;;;;;;;;;;;;;;;;;;4847755;29;20010;-80
2023/08/30 12:27:45;;;;;;;;;;;;;;;;;;4863320;29;19927;-79
2023/08/30 12:30:10;;;;;;;;;;;;;;;;;;4850913;29;19928;-78
2023/08/30 12:32:35;;;;;;;;;;;;;;;;;;4866787;29;19928;-79
2023/08/30 12:35:01;;;;;;;;;;;;;;;;;;4868903;29;19927;-78
2023/08/30 12:37:29;;;;;;;;;;;;;;;;;;4863814;29;19947;-78
2023/08/30 12:39:54;;;;;;;;;;;;;;;;;;4852977;29;19927;-78
2023/08/30 12:42:19;;;;;;;;;;;;;;;;;;4867003;29;19919;-78
2023/08/30 12:44:44;;;;;;;;;;;;;;;;;;4863495;29;19926;-79
2023/08/30 12:47:13;;;;;;;;;;;;;;;;;;4846375;29;19919;-78
2023/08/30 12:49:39;;;;;;;;;;;;;;;;;;4869060;29;19935;-78
2023/08/30 12:52:04;;;;;;;;;;;;;;;;;;4850736;29;19920;-78
2023/08/30 12:54:29;;;;;;;;;;;;;;;;;;4847900;29;19920;-79
2023/08/30 12:56:55;;;;;;;;;;;;;;;;;;4838698;29;20372;-78
2023/08/30 12:59:20;;;;;;;;;;;;;;;;;;4850096;29;19919;-78
2023/08/30 13:01:46;;;;;;;;;;;;;;;;;;4867689;29;20381;-78
2023/08/30 13:04:11;;;;;;;;;;;;;;;;;;4846724;29;20042;-78
2023/08/30 13:06:36;;;;;;;;;;;;;;;;;;4849066;29;19935;-78
2023/08/30 13:09:03;;;;;;;;;;;;;;;;;;4846276;29;19964;-78
2023/08/30 13:11:30;;;;;;;;;;;;;;;;;;4844723;29;20427;-78
2023/08/30 13:13:57;;;;;;;;;;;;;;;;;;4850005;29;19927;-78
2023/08/30 13:16:23;;;;;;;;;;;;;;;;;;4859460;29;20368;-79
2023/08/30 13:18:48;;;;;;;;;;;;;;;;;;4853853;29;19926;-79
2023/08/30 13:21:13;;;;;;;;;;;;;;;;;;4849186;29;19947;-79
2023/08/30 13:23:38;;;;;;;;;;;;;;;;;;4847670;29;19939;-79
2023/08/30 13:26:07;;;;;;;;;;;;;;;;;;4849042;29;19919;-81
2023/08/30 13:28:32;;;;;;;;;;;;;;;;;;4852475;29;19948;-81
2023/08/30 13:30:58;;;;;;;;;;;;;;;;;;4850516;29;19920;-81
2023/08/30 13:33:23;;;;;;;;;;;;;;;;;;4867473;29;20225;-81
2023/08/30 13:35:49;;;;;;;;;;;;;;;;;;4847145;29;19920;-80
2023/08/30 13:38:25;;;;;;;;;;;;;;;;;;4851209;29;20284;-80
2023/08/30 13:40:50;;;;;;;;;;;;;;;;;;4862174;29;20768;-80
2023/08/30 13:43:16;;;;;;;;;;;;;;;;;;4848409;29;19935;-80
2023/08/30 13:45:46;;;;;;;;;;;;;;;;;;4868127;29;19948;-81
2023/08/30 13:48:12;;;;;;;;;;;;;;;;;;4849311;29;20376;-81
2023/08/30 13:50:40;;;;;;;;;;;;;;;;;;4845552;29;19936;-80
2023/08/30 13:53:06;;;;;;;;;;;;;;;;;;4848612;29;19926;-78
2023/08/30 13:55:33;;;;;;;;;;;;;;;;;;4845996;29;20006;-81
2023/08/30 13:57:58;;;;;;;;;;;;;;;;;;4847903;29;19924;-81
2023/08/30 14:00:23;;;;;;;;;;;;;;;;;;4865737;29;20387;-81
2023/08/30 14:02:49;;;;;;;;;;;;;;;;;;4853571;29;20280;-81
2023/08/30 14:05:14;;;;;;;;;;;;;;;;;;4848998;29;19920;-82
2023/08/30 14:07:42;;;;;;;;;;;;;;;;;;4867026;29;19920;-80
2023/08/30 14:10:07;;;;;;;;;;;;;;;;;;4851008;29;19935;-78
2023/08/30 14:12:34;;;;;;;;;;;;;;;;;;4859266;29;19916;-77
2023/08/30 14:14:59;;;;;;;;;;;;;;;;;;4866983;29;20014;-78
2023/08/30 14:17:24;;;;;;;;;;;;;;;;;;4847865;29;20011;-77
2023/08/30 14:19:49;;;;;;;;;;;;;;;;;;4846405;29;19963;-77
2023/08/30 14:22:15;;;;;;;;;;;;;;;;;;4846037;29;19920;-75
2023/08/30 14:24:40;;;;;;;;;;;;;;;;;;4847926;29;19943;-79
2023/08/30 14:27:07;;;;;;;;;;;;;;;;;;4862814;29;20396;-78
2023/08/30 14:29:32;;;;;;;;;;;;;;;;;;4849411;29;19924;-78
2023/08/30 14:31:57;;;;;;;;;;;;;;;;;;4858888;29;20412;-79
2023/08/30 14:34:28;;;;;;;;;;;;;;;;;;4863286;29;20037;-77
2023/08/30 14:36:53;;;;;;;;;;;;;;;;;;4868351;29;19923;-78
2023/08/30 14:39:19;;;;;;;;;;;;;;;;;;4865693;29;19920;-76
2023/08/30 14:41:44;;;;;;;;;;;;;;;;;;4863633;29;19922;-76
2023/08/30 14:44:09;;;;;;;;;;;;;;;;;;4868829;29;19919;-76
2023/08/30 14:46:42;;;;;;;;;;;;;;;;;;4869253;29;20464;-76
2023/08/30 14:49:08;;;;;;;;;;;;;;;;;;4868410;29;19934;-77
2023/08/30 14:51:33;;;;;;;;;;;;;;;;;;4851126;29;19920;-76
2023/08/30 14:53:58;;;;;;;;;;;;;;;;;;4869375;29;20023;-77
2023/08/30 14:56:23;;;;;;;;;;;;;;;;;;4868053;29;19923;-77
2023/08/30 14:58:50;;;;;;;;;;;;;;;;;;4868356;29;19916;-77
2023/08/30 15:01:16;;;;;;;;;;;;;;;;;;4849104;29;20454;-77
2023/08/30 15:03:41;;;;;;;;;;;;;;;;;;4868608;29;19998;-76
2023/08/30 15:06:06;;;;;;;;;;;;;;;;;;4848846;29;19923;-77
2023/08/30 15:08:32;;;;;;;;;;;;;;;;;;4860930;29;19979;-78
2023/08/30 15:10:57;;;;;;;;;;;;;;;;;;4860567;29;19931;-78
2023/08/30 15:13:22;;;;;;;;;;;;;;;;;;4861075;29;20295;-78
2023/08/30 15:15:50;;;;;;;;;;;;;;;;;;4868007;29;19951;-78
2023/08/30 15:18:16;;;;;;;;;;;;;;;;;;4869985;29;19923;-78
2023/08/30 15:20:41;;;;;;;;;;;;;;;;;;4853629;29;19979;-78
2023/08/30 15:23:06;;;;;;;;;;;;;;;;;;4869937;29;20375;-78
2023/08/30 15:25:31;;;;;;;;;;;;;;;;;;4858519;29;19999;-77
2023/08/30 15:27:57;;;;;;;;;;;;;;;;;;4840362;29;20010;-78
2023/08/30 15:30:22;;;;;;;;;;;;;;;;;;4862911;29;20018;-78
2023/08/30 15:32:54;;;;;;;;;;;;;;;;;;4875716;29;19923;-78
2023/08/30 15:35:19;;;;;;;;;;;;;;;;;;4851932;29;19915;-77
2023/08/30 15:37:44;;;;;;;;;;;;;;;;;;4855330;29;19919;-78
2023/08/30 15:40:10;;;;;;;;;;;;;;;;;;4851745;29;20314;-77
2023/08/30 15:42:35;;;;;;;;;;;;;;;;;;4857655;29;20014;-77
2023/08/30 15:45:01;;;;;;;;;;;;;;;;;;4855567;29;20399;-78
2023/08/30 15:47:26;;;;;;;;;;;;;;;;;;4852599;29;20573;-77
2023/08/30 15:49:52;;;;;;;;;;;;;;;;;;4862037;29;19973;-78
2023/08/30 15:52:17;;;;;;;;;;;;;;;;;;4849482;29;19927;-78
2023/08/30 15:54:42;;;;;;;;;;;;;;;;;;4872908;29;19972;-78
2023/08/30 15:57:07;;;;;;;;;;;;;;;;;;4875993;29;19920;-78
2023/08/30 15:59:33;;;;;;;;;;;;;;;;;;4852118;29;19919;-78
2023/08/30 16:01:58;;;;;;;;;;;;;;;;;;4872102;29;19924;-77
2023/08/30 16:04:23;;;;;;;;;;;;;;;;;;4873094;29;19970;-77
2023/08/30 16:06:50;;;;;;;;;;;;;;;;;;4850187;29;19970;-78
2023/08/30 16:09:15;;;;;;;;;;;;;;;;;;4875822;29;19923;-78
2023/08/30 16:11:40;;;;;;;;;;;;;;;;;;4842032;29;20460;-78
2023/08/30 16:14:06;;;;;;;;;;;;;;;;;;4862633;29;19926;-78
2023/08/30 16:16:31;;;;;;;;;;;;;;;;;;4853474;29;19919;-77
2023/08/30 16:18:59;;;;;;;;;;;;;;;;;;4852411;29;19923;-78
2023/08/30 16:21:24;;;;;;;;;;;;;;;;;;4850507;29;19927;-77
2023/08/30 16:23:49;;;;;;;;;;;;;;;;;;4867187;29;20411;-78
2023/08/30 16:26:14;;;;;;;;;;;;;;;;;;4871455;29;20002;-78
2023/08/30 16:28:40;;;;;;;;;;;;;;;;;;4849022;29;19915;-78
2023/08/30 16:31:05;;;;;;;;;;;;;;;;;;4871131;29;19919;-78
2023/08/30 16:33:31;;;;;;;;;;;;;;;;;;4850218;29;20014;-78
2023/08/30 16:35:57;;;;;;;;;;;;;;;;;;4848680;29;19919;-77
2023/08/30 16:38:22;;;;;;;;;;;;;;;;;;4873025;29;19919;-78